Time;durP1;ratioP1;P1;durP2;ratioP2;P2;SDS_P1;SDS_P2;PMS_P1;PMS_P2;Temp;Humidity;BMP_temperature;BMP_pressure;BME280_temperature;BME280_humidity;BME280_pressure;Samples;Min_cycle;Max_cycle;Signal;HPM_P1;HPM_P2
2021/09/30 00:02:22;;;;;;;10.45;8.73;;;;;;;14.56;48.45;101377.38;1776995;79;21046;-61
2021/09/30 00:04:49;;;;;;;11.33;8.90;;;;;;;14.57;48.34;101371.08;1779468;79;21002;-61
2021/09/30 00:07:17;;;;;;;12.05;9.03;;;;;;;14.58;48.26;101373.25;1762768;80;21509;-62
2021/09/30 00:09:46;;;;;;;13.30;9.73;;;;;;;14.58;48.17;101373.25;1750966;79;21032;-61
2021/09/30 00:12:34;;;;;;;10.43;8.53;;;;;;;14.58;48.12;101370.58;1791074;79;21042;-62
2021/09/30 00:15:07;;;;;;;12.35;8.85;;;;;;;14.57;48.04;101373.75;1777873;79;21079;-61
2021/09/30 00:34:36;;;;;;;9.63;8.18;;;;;;;14.52;47.61;101371.48;1838242;77;20987;-62
2021/09/30 00:42:10;;;;;;;11.00;8.93;;;;;;;14.50;47.53;101373.98;1794610;77;21573;-61
2021/09/30 00:50:10;;;;;;;9.35;8.35;;;;;;;14.48;47.43;101362.10;1839132;77;21002;-61
2021/09/30 02:24:41;;;;;;;16.87;15.18;;;;;;;14.20;48.32;101369.38;1840033;76;21481;-61
2021/09/30 02:27:05;;;;;;;16.82;15.13;;;;;;;14.14;48.38;101364.14;1833053;77;21072;-60
2021/09/30 02:59:09;;;;;;;14.00;11.28;;;;;;;14.01;48.47;101364.17;1820717;77;20998;-61
2021/09/30 03:01:36;;;;;;;14.98;12.10;;;;;;;13.99;48.48;101369.66;1830743;76;21008;-61
2021/09/30 03:04:03;;;;;;;14.43;10.72;;;;;;;13.98;48.51;101373.31;1855766;76;21001;-61
2021/09/30 03:06:32;;;;;;;13.03;11.12;;;;;;;13.98;48.52;101373.81;1853235;77;21025;-61
2021/09/30 03:09:01;;;;;;;13.98;11.43;;;;;;;13.96;48.49;101370.81;1851458;77;21119;-61
2021/09/30 03:11:30;;;;;;;11.88;10.40;;;;;;;13.96;48.48;101372.63;1846068;77;21013;-61
2021/09/30 03:13:57;;;;;;;11.85;9.73;;;;;;;13.95;48.47;101369.63;1856897;76;21005;-61
2021/09/30 03:16:30;;;;;;;13.25;11.20;;;;;;;13.95;48.46;101368.29;1862096;77;21025;-63
2021/09/30 03:24:06;;;;;;;13.40;10.65;;;;;;;13.93;48.53;101374.28;1855788;77;20999;-61
2021/09/30 03:26:33;;;;;;;13.50;9.63;;;;;;;13.91;48.53;101371.75;1788299;80;21077;-60
2021/09/30 03:29:01;;;;;;;13.28;10.05;;;;;;;13.92;48.52;101372.58;1788844;80;21005;-61
2021/09/30 03:31:27;;;;;;;14.73;10.25;;;;;;;13.91;48.54;101370.41;1795862;78;21049;-62
2021/09/30 03:33:59;;;;;;;15.53;10.40;;;;;;;13.90;48.56;101368.72;1809164;78;21039;-61
2021/09/30 03:36:26;;;;;;;12.63;11.03;;;;;;;13.89;48.55;101367.05;1805466;78;21046;-61
2021/09/30 03:38:52;;;;;;;17.80;11.08;;;;;;;13.89;48.56;101370.23;1765404;78;21095;-61
2021/09/30 03:41:19;;;;;;;14.53;10.40;;;;;;;13.88;48.59;101370.70;1776842;78;21061;-60
2021/09/30 03:43:45;;;;;;;17.73;12.30;;;;;;;13.88;48.59;101374.71;1818859;78;20994;-59
2021/09/30 03:46:12;;;;;;;15.83;11.18;;;;;;;13.87;48.61;101371.71;1810048;78;21044;-60
2021/09/30 03:48:41;;;;;;;15.18;10.63;;;;;;;13.86;48.59;101372.69;1769438;78;21085;-62
2021/09/30 03:51:15;;;;;;;14.30;10.68;;;;;;;13.85;48.58;101367.48;1805123;78;21485;-61
2021/09/30 03:56:21;;;;;;;21.70;10.85;;;;;;;13.83;48.62;101368.13;1806471;78;21041;-63
2021/09/30 04:01:19;;;;;;;13.83;10.30;;;;;;;13.81;48.63;101368.31;1820711;78;20994;-61
2021/09/30 04:03:47;;;;;;;14.28;10.38;;;;;;;13.79;48.64;101372.96;1812377;78;20975;-61
2021/09/30 04:06:14;;;;;;;15.75;10.93;;;;;;;13.79;48.68;101376.97;1783185;79;22243;-61
2021/09/30 04:08:40;;;;;;;14.15;10.18;;;;;;;13.76;48.69;101372.74;1796307;79;21628;-61
2021/09/30 04:11:08;;;;;;;15.18;10.08;;;;;;;13.78;48.71;101379.28;1767139;79;21608;-61
2021/09/30 04:13:35;;;;;;;17.57;10.63;;;;;;;13.76;48.76;101378.59;1776798;79;21641;-61
2021/09/30 04:16:03;;;;;;;17.75;10.85;;;;;;;13.74;48.78;101377.39;1767015;79;21031;-62
2021/09/30 04:18:30;;;;;;;16.85;10.53;;;;;;;13.74;48.80;101380.06;1779745;79;21041;-61
2021/09/30 04:20:59;;;;;;;15.72;11.18;;;;;;;13.74;48.82;101377.89;1778211;79;21595;-61
2021/09/30 04:23:25;;;;;;;12.75;10.28;;;;;;;13.72;48.84;101370.53;1774759;79;22050;-62
2021/09/30 04:25:53;;;;;;;14.55;10.55;;;;;;;13.73;48.86;101377.53;1835277;77;20978;-61
2021/09/30 04:28:20;;;;;;;15.72;10.82;;;;;;;13.73;48.88;101377.06;1827975;77;21021;-62
2021/09/30 04:30:48;;;;;;;14.65;9.73;;;;;;;13.71;48.89;101380.85;1837765;77;21577;-61
2021/09/30 04:33:17;;;;;;;16.12;10.80;;;;;;;13.72;48.90;101381.22;1841310;77;21034;-62
2021/09/30 04:35:44;;;;;;;14.28;10.82;;;;;;;13.71;48.93;101381.72;1842733;77;21099;-62
2021/09/30 04:38:11;;;;;;;17.45;11.30;;;;;;;13.72;48.95;101381.22;1836108;76;21011;-63
2021/09/30 04:40:38;;;;;;;15.32;10.65;;;;;;;13.72;48.93;101383.38;1828693;77;21074;-62
2021/09/30 04:43:04;;;;;;;13.08;11.25;;;;;;;13.72;48.95;101395.91;1836031;77;21070;-62
2021/09/30 04:45:32;;;;;;;14.38;10.28;;;;;;;13.72;48.94;101389.22;1826857;77;21085;-61
2021/09/30 04:48:00;;;;;;;18.60;10.70;;;;;;;13.72;48.93;101394.56;1832986;77;21033;-61
2021/09/30 04:50:27;;;;;;;15.05;10.95;;;;;;;13.73;48.94;101396.23;1844768;77;21026;-61
2021/09/30 04:53:00;;;;;;;15.70;10.63;;;;;;;13.73;48.92;101399.77;1813575;77;21043;-61
2021/09/30 04:55:23;;;;;;;16.67;11.43;;;;;;;13.74;48.94;101397.42;1841001;77;21742;-61
2021/09/30 04:57:49;;;;;;;12.40;10.43;;;;;;;13.74;48.96;101401.44;1839343;77;21056;-61
2021/09/30 05:00:16;;;;;;;16.25;11.00;;;;;;;13.67;48.96;101386.98;1829719;77;23303;-62
2021/09/30 05:02:47;;;;;;;13.00;10.70;;;;;;;13.75;48.99;101396.92;1837647;76;21014;-61
2021/09/30 05:05:15;;;;;;;16.80;11.12;;;;;;;13.76;49.04;101402.63;1824378;77;21038;-65
2021/09/30 05:07:42;;;;;;;13.62;10.10;;;;;;;13.76;49.08;101402.13;1827471;77;21114;-61
2021/09/30 05:10:12;;;;;;;15.85;11.00;;;;;;;13.76;49.13;101399.45;1845227;77;21079;-61
2021/09/30 05:12:40;;;;;;;15.45;11.22;;;;;;;13.78;49.18;101401.98;1846830;76;21017;-61
2021/09/30 05:15:10;;;;;;;13.83;11.15;;;;;;;13.80;49.20;101400.50;1847362;77;21045;-61
2021/09/30 05:17:39;;;;;;;16.55;10.65;;;;;;;13.82;49.25;101406.03;1847600;77;21025;-60
2021/09/30 05:20:09;;;;;;;15.98;11.38;;;;;;;13.84;49.31;101402.72;1853230;77;21011;-62
2021/09/30 05:22:38;;;;;;;13.78;11.33;;;;;;;13.87;49.34;101407.77;1786995;80;21073;-61
2021/09/30 05:25:06;;;;;;;16.17;12.28;;;;;;;13.90;49.36;101413.30;1787153;80;21840;-57
2021/09/30 05:27:32;;;;;;;15.75;11.73;;;;;;;13.91;49.37;101414.50;1775808;80;21046;-57
2021/09/30 05:29:59;;;;;;;17.20;12.10;;;;;;;13.94;49.38;101418.19;1776541;80;21093;-57
2021/09/30 05:32:28;;;;;;;15.50;12.30;;;;;;;13.95;49.43;101415.88;1771210;80;21386;-59
2021/09/30 05:34:59;;;;;;;14.83;11.60;;;;;;;13.98;49.45;101420.07;1812965;77;21461;-59
2021/09/30 05:37:29;;;;;;;15.88;12.23;;;;;;;13.99;49.47;101416.42;1823591;76;21130;-59
2021/09/30 05:39:58;;;;;;;21.33;12.20;;;;;;;14.02;49.50;101422.78;1835224;77;20999;-61
2021/09/30 05:42:24;;;;;;;16.75;12.13;;;;;;;14.04;49.51;101421.31;1834368;77;21042;-62
2021/09/30 05:44:53;;;;;;;20.00;13.32;;;;;;;14.05;49.56;101427.84;1832216;77;21541;-61
2021/09/30 05:47:19;;;;;;;17.57;12.58;;;;;;;14.07;49.57;101427.20;1846921;77;21551;-62
2021/09/30 05:49:47;;;;;;;20.92;13.45;;;;;;;14.10;49.61;101422.03;1833683;76;21067;-62
2021/09/30 05:52:18;;;;;;;17.57;14.03;;;;;;;14.11;49.63;101423.23;1776522;77;21521;-62
2021/09/30 05:54:47;;;;;;;17.65;12.65;;;;;;;14.13;49.65;101422.58;1825796;77;21068;-62
2021/09/30 05:57:18;;;;;;;16.42;12.65;;;;;;;14.15;49.64;101425.11;1824263;77;21061;-61
2021/09/30 05:59:44;;;;;;;18.40;12.63;;;;;;;14.19;49.66;101429.16;1775412;80;21045;-63
2021/09/30 06:11:17;;;;;;;19.65;12.78;;;;;;;14.25;49.69;101433.06;1776186;80;21086;-62
2021/09/30 06:13:08;;;;;;;22.00;13.32;;;;;;;14.27;49.72;101438.59;1746986;80;21026;-61
2021/09/30 06:15:33;;;;;;;22.75;14.70;;;;;;;14.30;49.74;101434.30;1774753;79;21151;-63
2021/09/30 06:18:01;;;;;;;18.27;13.60;;;;;;;14.32;49.77;101435.48;1778435;80;21010;-61
2021/09/30 06:20:30;;;;;;;18.12;13.48;;;;;;;14.32;49.75;101436.32;1778146;80;21045;-61
2021/09/30 06:22:56;;;;;;;17.48;13.93;;;;;;;14.35;49.78;101439.17;1769890;80;21079;-61
2021/09/30 06:25:23;;;;;;;18.52;13.32;;;;;;;14.37;49.78;101435.89;1763275;80;21060;-60
2021/09/30 06:27:50;;;;;;;21.85;14.60;;;;;;;14.40;49.82;101436.06;1773368;80;21139;-62
2021/09/30 06:30:17;;;;;;;18.20;13.32;;;;;;;14.41;49.82;101443.08;1761648;80;21026;-62
2021/09/30 06:32:44;;;;;;;19.90;13.58;;;;;;;14.43;49.81;101433.94;1756356;80;21366;-61
2021/09/30 06:35:29;;;;;;;16.77;13.55;;;;;;;14.45;49.80;101432.45;1756556;79;21529;-62
2021/09/30 06:37:55;;;;;;;21.20;14.50;;;;;;;14.47;49.86;101435.31;1780241;79;21002;-62
2021/09/30 06:40:22;;;;;;;16.85;12.90;;;;;;;14.48;49.85;101439.64;1768587;80;21285;-62
2021/09/30 06:42:50;;;;;;;16.52;13.03;;;;;;;14.51;49.83;101437.19;1804760;79;21031;-62
2021/09/30 06:45:35;;;;;;;20.48;14.38;;;;;;;14.53;49.81;101437.37;1826089;76;21107;-61
2021/09/30 06:48:20;;;;;;;16.90;12.95;;;;;;;14.55;49.77;101443.41;1835307;77;21033;-63
2021/09/30 06:50:49;;;;;;;18.80;12.73;;;;;;;14.56;49.82;101440.22;1827121;77;21052;-64
2021/09/30 06:53:17;;;;;;;15.30;13.10;;;;;;;14.58;50.26;101439.60;1800178;77;21128;-66
2021/09/30 06:56:06;;;;;;;21.77;13.93;;;;;;;14.59;50.91;101449.32;1835007;77;21018;-65
2021/09/30 06:58:43;;;;;;;17.82;13.50;;;;;;;14.58;51.20;101442.78;1691121;83;21044;-65
2021/09/30 07:01:27;;;;;;;19.23;13.05;;;;;;;14.57;51.36;101441.95;1651622;85;21140;-64
2021/09/30 07:04:11;;;;;;;17.30;12.33;;;;;;;14.57;51.55;101443.28;1745383;79;20967;-65
2021/09/30 07:06:42;;;;;;;15.88;11.75;;;;;;;14.57;51.47;101449.98;1795153;79;21148;-66
2021/09/30 07:09:10;;;;;;;15.30;10.88;;;;;;;14.58;51.21;101447.63;1804016;79;21034;-65
2021/09/30 07:11:37;;;;;;;14.55;11.65;;;;;;;14.59;50.94;101447.16;1823868;77;21014;-65
2021/09/30 07:14:03;;;;;;;15.83;11.43;;;;;;;14.59;51.14;101447.98;1842071;77;21041;-65
2021/09/30 07:16:29;;;;;;;13.62;10.50;;;;;;;14.61;51.15;101454.53;1826584;77;20983;-66
2021/09/30 07:18:57;;;;;;;13.53;11.38;;;;;;;14.61;51.18;101443.33;1830493;76;21562;-65
2021/09/30 07:21:24;;;;;;;11.75;10.00;;;;;;;14.63;50.71;101445.34;1836420;77;21533;-65
2021/09/30 07:23:50;;;;;;;11.85;10.05;;;;;;;14.65;50.11;101446.03;1775950;79;21029;-65
2021/09/30 07:26:17;;;;;;;9.60;8.60;;;;;;;14.66;49.61;101450.41;1836187;77;21073;-66
2021/09/30 07:28:43;;;;;;;14.35;9.30;;;;;;;14.68;49.34;101449.75;1846224;77;21006;-66
2021/09/30 07:31:10;;;;;;;16.70;9.60;;;;;;;14.69;49.27;101443.39;1842238;77;21132;-64
2021/09/30 07:33:36;;;;;;;10.30;9.10;;;;;;;14.73;49.46;101442.08;1832123;77;21111;-66
2021/09/30 07:36:03;;;;;;;14.30;9.90;;;;;;;14.78;49.56;101446.16;1837339;76;21041;-63
2021/09/30 07:38:29;;;;;;;13.70;9.40;;;;;;;14.81;49.45;101448.00;1823261;77;20982;-66
2021/09/30 07:40:56;;;;;;;11.78;10.23;;;;;;;14.88;49.35;101441.55;1849065;77;21002;-66
2021/09/30 07:43:23;;;;;;;11.40;9.35;;;;;;;14.91;49.21;101448.78;1840357;76;21073;-66
2021/09/30 07:45:50;;;;;;;11.22;9.83;;;;;;;14.96;49.08;101448.30;1837127;77;21348;-66
2021/09/30 07:48:16;;;;;;;16.60;10.32;;;;;;;15.01;48.96;101453.17;1824059;77;21026;-65
2021/09/30 07:50:42;;;;;;;13.30;9.50;;;;;;;15.04;48.86;101448.36;1835353;77;21593;-65
2021/09/30 07:53:10;;;;;;;12.05;8.95;;;;;;;15.07;48.48;101450.73;1839481;76;21057;-65
2021/09/30 07:55:36;;;;;;;10.03;8.65;;;;;;;15.11;48.16;101445.41;1827470;77;21850;-62
2021/09/30 07:58:06;;;;;;;11.15;8.13;;;;;;;15.16;47.76;101449.45;1804666;77;21503;-66
2021/09/30 08:00:31;;;;;;;9.55;8.20;;;;;;;15.18;47.50;101450.13;1835574;77;21030;-65
2021/09/30 08:02:58;;;;;;;10.50;8.55;;;;;;;15.21;47.38;101449.32;1819458;77;21080;-65
2021/09/30 08:05:26;;;;;;;9.13;7.65;;;;;;;15.24;47.23;101452.17;1817392;77;21033;-65
2021/09/30 08:07:53;;;;;;;9.75;8.10;;;;;;;15.26;47.11;101452.86;1844451;77;22411;-66
2021/09/30 08:10:20;;;;;;;10.03;8.68;;;;;;;15.28;47.02;101451.72;1844441;76;21029;-67
2021/09/30 08:12:48;;;;;;;8.75;7.90;;;;;;;15.31;46.75;101454.06;1835971;76;21037;-65
2021/09/30 08:15:15;;;;;;;8.28;7.00;;;;;;;15.33;46.41;101456.59;1846466;77;21061;-65
2021/09/30 08:17:41;;;;;;;7.87;6.70;;;;;;;15.34;46.13;101451.09;1831297;77;21526;-66
2021/09/30 08:20:09;;;;;;;9.15;6.35;;;;;;;15.36;45.86;101458.97;1836938;76;22607;-65
2021/09/30 08:22:36;;;;;;;8.28;6.55;;;;;;;15.38;45.77;101458.31;1846219;77;21030;-65
2021/09/30 08:25:02;;;;;;;8.68;6.97;;;;;;;15.40;45.56;101454.14;1848900;77;21028;-66
2021/09/30 08:27:29;;;;;;;10.80;7.42;;;;;;;15.41;45.44;101451.79;1853590;76;21087;-65
2021/09/30 08:29:56;;;;;;;9.70;6.08;;;;;;;15.41;45.32;101453.95;1835051;77;21187;-66
2021/09/30 08:32:23;;;;;;;7.35;6.62;;;;;;;15.42;45.25;101447.63;1843552;76;21139;-65
2021/09/30 08:34:49;;;;;;;7.75;6.75;;;;;;;15.43;45.19;101456.02;1845124;76;21502;-66
2021/09/30 08:37:16;;;;;;;8.13;7.10;;;;;;;15.44;45.11;101452.31;1860281;76;21060;-65
2021/09/30 08:39:43;;;;;;;8.00;7.20;;;;;;;15.46;45.05;101453.50;1840292;77;20972;-64
2021/09/30 08:42:09;;;;;;;7.00;6.05;;;;;;;15.47;45.00;101457.37;1851967;77;21036;-65
2021/09/30 08:44:36;;;;;;;9.63;6.00;;;;;;;15.49;44.93;101451.36;1851297;76;21092;-66
2021/09/30 08:47:03;;;;;;;8.55;5.67;;;;;;;15.50;44.83;101458.38;1848766;77;21025;-67
2021/09/30 08:49:33;;;;;;;6.47;5.50;;;;;;;15.52;44.78;101447.51;1841432;76;21084;-64
2021/09/30 08:52:02;;;;;;;7.33;5.37;;;;;;;15.54;44.75;101449.02;1825854;76;21026;-66
2021/09/30 08:54:30;;;;;;;9.35;5.97;;;;;;;15.56;44.62;101452.88;1844328;77;21049;-65
2021/09/30 08:56:56;;;;;;;5.90;5.30;;;;;;;15.59;44.51;101458.41;1839970;77;21117;-67
2021/09/30 08:59:27;;;;;;;7.55;5.55;;;;;;;15.60;44.36;101442.70;1846789;76;21037;-66
2021/09/30 09:02:10;;;;;;;7.25;5.45;;;;;;;15.61;44.25;101445.22;1854384;76;20997;-66
2021/09/30 09:04:38;;;;;;;5.58;5.00;;;;;;;15.62;44.11;101437.50;1853425;76;21505;-66
2021/09/30 09:07:08;;;;;;;7.83;4.80;;;;;;;15.64;44.00;101448.91;1848178;77;21145;-67
2021/09/30 09:09:35;;;;;;;5.60;4.92;;;;;;;15.66;43.91;101439.38;1851426;77;21032;-67
2021/09/30 09:12:08;;;;;;;5.87;4.35;;;;;;;15.67;43.91;101440.56;1849962;77;21054;-67
2021/09/30 09:14:38;;;;;;;5.55;4.95;;;;;;;15.70;43.78;101444.27;1855485;77;21485;-66
2021/09/30 09:17:11;;;;;;;5.58;4.95;;;;;;;15.71;43.65;101438.41;1855266;76;21030;-67
2021/09/30 09:19:39;;;;;;;;;;;;;;;15.73;43.56;101441.80;1810888;78;21018;-65
2021/09/30 09:22:18;;;;;;;7.17;4.37;;;;;;;15.75;43.46;101437.11;1774835;80;22305;-65
2021/09/30 09:25:11;;;;;;;5.75;4.53;;;;;;;15.73;43.49;101435.92;1814521;78;21080;-66
2021/09/30 09:27:54;;;;;;;5.20;4.70;;;;;;;15.75;43.37;101449.16;1814221;78;21548;-66
2021/09/30 09:30:51;;;;;;;5.80;4.65;;;;;;;15.77;43.24;101437.78;1778740;80;21007;-67
2021/09/30 09:33:26;;;;;;;5.40;4.42;;;;;;;15.79;43.21;101440.31;1836589;77;21036;-66
2021/09/30 09:36:02;;;;;;;9.15;4.92;;;;;;;15.81;43.16;101447.17;1849588;76;21065;-66
2021/09/30 09:38:35;;;;;;;6.83;4.62;;;;;;;15.82;43.15;101437.30;1854180;76;21001;-66
2021/09/30 09:41:04;;;;;;;4.92;4.42;;;;;;;15.86;43.10;101440.02;1794394;77;21591;-66
2021/09/30 09:43:39;;;;;;;4.97;4.47;;;;;;;15.89;43.02;101445.03;1834973;76;21003;-65
2021/09/30 09:46:06;;;;;;;5.90;4.70;;;;;;;15.92;42.95;101447.41;1830191;76;21548;-65
2021/09/30 09:48:34;;;;;;;4.72;4.33;;;;;;;15.96;42.90;101448.75;1856195;77;21815;-66
2021/09/30 09:51:10;;;;;;;4.53;4.10;;;;;;;15.99;42.85;101443.56;1855376;76;21013;-64
2021/09/30 09:53:38;;;;;;;5.97;4.60;;;;;;;16.01;42.81;101450.46;1763653;79;21533;-65
2021/09/30 09:56:18;;;;;;;7.12;5.10;;;;;;;16.04;42.75;101447.44;1754524;79;21132;-66
2021/09/30 09:58:55;;;;;;;5.47;4.97;;;;;;;16.07;42.72;101443.58;1788253;78;21069;-64
2021/09/30 10:01:39;;;;;;;5.35;4.85;;;;;;;16.08;42.65;101446.11;1833582;77;21079;-65
2021/09/30 10:04:06;;;;;;;9.90;4.75;;;;;;;16.11;42.58;101448.98;1836799;77;21044;-66
2021/09/30 10:06:33;;;;;;;8.25;5.12;;;;;;;16.13;42.60;101449.66;1815259;77;21029;-65
2021/09/30 10:09:00;;;;;;;6.05;5.05;;;;;;;16.15;42.60;101439.61;1825481;77;21068;-65
2021/09/30 10:11:27;;;;;;;6.03;5.42;;;;;;;16.18;42.53;101441.95;1808377;77;21056;-66
2021/09/30 10:13:59;;;;;;;8.15;5.35;;;;;;;16.20;42.46;101441.28;1824303;77;21068;-66
2021/09/30 10:16:27;;;;;;;6.12;4.97;;;;;;;16.22;42.37;101445.97;1819607;77;21033;-65
2021/09/30 10:18:58;;;;;;;6.08;5.25;;;;;;;16.24;42.37;101434.58;1812215;77;21080;-65
2021/09/30 10:21:25;;;;;;;5.17;4.65;;;;;;;16.28;42.30;101443.14;1819953;77;21330;-66
2021/09/30 10:24:04;;;;;;;5.72;4.78;;;;;;;16.25;42.22;101429.57;1816339;77;21080;-65
2021/09/30 10:26:40;;;;;;;8.40;5.30;;;;;;;16.34;42.18;101445.20;1819041;77;21084;-67
2021/09/30 10:29:06;;;;;;;5.90;5.12;;;;;;;16.37;42.15;101438.66;1811861;77;21025;-67
2021/09/30 10:31:37;;;;;;;5.78;4.95;;;;;;;16.39;42.10;101430.77;1814480;77;21088;-66
2021/09/30 10:34:08;;;;;;;6.12;5.42;;;;;;;16.43;42.07;101433.96;1825265;77;20989;-67
2021/09/30 10:36:45;;;;;;;5.67;5.12;;;;;;;16.46;42.03;101429.63;1820691;77;21044;-66
2021/09/30 10:39:22;;;;;;;5.53;5.03;;;;;;;16.50;41.96;101436.33;1815445;77;21204;-66
2021/09/30 10:41:55;;;;;;;5.80;5.15;;;;;;;16.54;41.92;101428.28;1816209;77;21069;-66
2021/09/30 10:44:36;;;;;;;5.90;5.40;;;;;;;16.58;41.87;101428.28;1825673;77;21014;-67
2021/09/30 10:47:06;;;;;;;6.55;5.17;;;;;;;16.63;41.76;101423.27;1814623;77;21112;-65
2021/09/30 10:49:44;;;;;;;6.40;5.08;;;;;;;16.69;41.80;101415.05;1816915;77;20978;-65
2021/09/30 10:52:22;;;;;;;5.00;4.50;;;;;;;16.75;41.77;101422.43;1812518;77;21122;-58
2021/09/30 10:54:56;;;;;;;6.05;5.42;;;;;;;16.83;41.70;101426.48;1830589;77;21025;-60
2021/09/30 10:57:45;;;;;;;5.47;4.37;;;;;;;16.90;41.63;101430.17;1846097;77;20986;-58
2021/09/30 11:00:24;;;;;;;5.17;4.67;;;;;;;16.99;41.68;101420.25;1841028;76;21037;-60
2021/09/30 11:03:09;;;;;;;6.65;5.37;;;;;;;17.14;41.62;101420.92;1831965;76;21010;-59
2021/09/30 11:05:38;;;;;;;6.28;5.15;;;;;;;17.30;41.64;101410.13;1823313;77;21010;-59
2021/09/30 11:08:26;;;;;;;5.25;4.75;;;;;;;17.48;41.61;101412.11;1844394;77;21045;-59
2021/09/30 11:11:08;;;;;;;9.65;5.15;;;;;;;17.66;41.48;101411.04;1849676;76;21505;-57
2021/09/30 11:13:59;;;;;;;5.37;4.60;;;;;;;17.86;41.39;101410.96;1833333;77;20997;-59
2021/09/30 11:16:42;;;;;;;8.43;4.67;;;;;;;18.04;41.23;101401.31;1830221;77;20990;-59
2021/09/30 11:20:49;;;;;;;5.40;4.90;;;;;;;18.45;41.01;101390.80;1761790;79;28171;-60
2021/09/30 11:23:51;;;;;;;5.37;4.87;;;;;;;18.58;40.83;101392.86;1731285;81;20957;-58
2021/09/30 11:26:18;;;;;;;6.15;4.72;;;;;;;18.77;40.60;101394.22;1737152;80;21139;-59
2021/09/30 11:28:45;;;;;;;5.47;4.72;;;;;;;19.00;40.39;101392.34;1737950;81;21013;-60
2021/09/30 11:31:27;;;;;;;7.35;4.92;;;;;;;19.19;40.17;101386.94;1745600;80;21089;-60
2021/09/30 11:33:58;;;;;;;8.30;4.97;;;;;;;19.37;40.00;101381.70;1737742;80;21022;-60
2021/09/30 11:36:36;;;;;;;6.08;5.42;;;;;;;19.57;39.78;101383.33;1733826;81;21094;-59
2021/09/30 11:39:06;;;;;;;6.35;4.55;;;;;;;19.75;39.45;101390.52;1740105;81;21097;-64
2021/09/30 11:41:35;;;;;;;6.78;5.20;;;;;;;19.95;39.14;101383.18;1737162;81;21025;-66
2021/09/30 11:44:01;;;;;;;5.30;4.80;;;;;;;20.13;38.82;101383.61;1738515;81;21091;-63
2021/09/30 11:46:39;;;;;;;9.55;5.42;;;;;;;20.33;38.60;101378.92;1740806;81;21133;-62
2021/09/30 11:49:07;;;;;;;5.35;4.85;;;;;;;20.51;38.42;101371.71;1734767;81;21045;-64
2021/09/30 11:51:40;;;;;;;8.68;5.03;;;;;;;20.71;38.20;101369.23;1745166;81;21193;-63
2021/09/30 11:54:08;;;;;;;;;;;;;;;20.89;37.98;101368.73;1744443;81;21076;-59
2021/09/30 11:56:39;;;;;;;6.40;5.10;;;;;;;21.05;37.71;101356.27;1732900;81;20186;-59
2021/09/30 11:59:06;;;;;;;5.72;5.12;;;;;;;21.24;37.52;101365.53;1711164;81;21030;-59
2021/09/30 12:01:42;;;;;;;5.22;4.72;;;;;;;21.55;37.11;101362.39;1746983;80;21006;-60
2021/09/30 12:04:09;;;;;;;7.20;5.60;;;;;;;21.97;36.60;101363.16;1750826;81;21132;-58
2021/09/30 12:06:44;;;;;;;8.23;5.30;;;;;;;22.52;35.86;101355.47;1750689;81;21045;-59
2021/09/30 12:09:12;;;;;;;5.85;5.35;;;;;;;23.05;35.20;101350.58;1748325;81;21545;-58
2021/09/30 12:11:43;;;;;;;6.72;5.75;;;;;;;23.57;34.46;101355.52;1689547;84;21113;-59
2021/09/30 12:14:09;;;;;;;6.45;5.37;;;;;;;24.03;33.86;101343.62;1686930;83;21189;-62
2021/09/30 12:16:58;;;;;;;6.78;5.12;;;;;;;24.48;33.33;101346.21;1675227;83;21070;-60
2021/09/30 12:19:32;;;;;;;7.62;6.25;;;;;;;24.89;32.80;101339.39;1693083;84;21082;-60
2021/09/30 12:21:59;;;;;;;5.53;4.90;;;;;;;25.31;32.26;101331.44;1662758;84;21590;-60
2021/09/30 12:24:28;;;;;;;7.42;4.92;;;;;;;25.67;31.83;101337.05;1662307;85;21630;-60
2021/09/30 12:26:54;;;;;;;7.37;5.47;;;;;;;25.96;31.40;101327.78;1666251;84;21096;-62
2021/09/30 12:29:20;;;;;;;7.40;5.50;;;;;;;26.18;31.06;101329.46;1674826;84;21498;-60
2021/09/30 12:32:04;;;;;;;6.33;4.90;;;;;;;26.21;30.91;101327.61;1671511;84;21074;-60
2021/09/30 12:34:31;;;;;;;6.10;4.90;;;;;;;26.17;30.88;101323.70;1650612;84;21113;-61
2021/09/30 12:36:58;;;;;;;5.65;5.15;;;;;;;26.03;30.93;101322.55;1671566;84;21074;-59
2021/09/30 12:39:28;;;;;;;5.80;5.12;;;;;;;25.90;31.02;101325.42;1666890;84;21514;-59
2021/09/30 12:41:56;;;;;;;5.70;5.20;;;;;;;25.79;31.09;101318.08;1666328;85;21140;-60
2021/09/30 12:44:23;;;;;;;7.50;4.87;;;;;;;25.67;31.17;101314.77;1646742;85;21083;-59
2021/09/30 12:46:51;;;;;;;6.08;5.35;;;;;;;25.61;31.25;101317.06;1673511;84;21079;-60
2021/09/30 12:49:19;;;;;;;5.75;5.10;;;;;;;25.56;31.29;101310.64;1658161;84;21134;-58
2021/09/30 12:51:46;;;;;;;5.87;5.17;;;;;;;25.54;31.32;101311.41;1649330;85;21085;-58
2021/09/30 12:54:17;;;;;;;7.37;5.15;;;;;;;25.60;31.25;101304.50;1667580;85;21645;-58
2021/09/30 12:56:43;;;;;;;6.25;5.25;;;;;;;25.72;31.14;101304.55;1639114;84;21659;-59
2021/09/30 12:59:14;;;;;;;7.37;5.33;;;;;;;25.88;31.02;101293.52;1671281;84;21510;-60
2021/09/30 13:01:42;;;;;;;6.08;5.47;;;;;;;26.06;30.84;101300.30;1666877;84;21071;-58
2021/09/30 13:04:25;;;;;;;6.15;5.65;;;;;;;26.25;30.65;101292.88;1670082;84;21102;-59
2021/09/30 13:07:03;;;;;;;5.78;4.95;;;;;;;26.45;30.41;101282.18;1677652;84;21227;-57
2021/09/30 13:09:38;;;;;;;6.45;5.85;;;;;;;26.65;30.26;101284.56;1700899;82;21039;-60
2021/09/30 13:12:14;;;;;;;6.47;5.87;;;;;;;26.84;30.00;101281.18;1704844;82;21150;-59
2021/09/30 13:14:48;;;;;;;5.60;5.10;;;;;;;27.03;29.77;101284.05;1714950;82;21567;-59
2021/09/30 13:17:21;;;;;;;5.97;5.30;;;;;;;27.19;29.37;101278.91;1713229;82;21078;-60
2021/09/30 13:20:06;;;;;;;7.87;6.20;;;;;;;27.35;29.08;101273.25;1719452;82;21170;-63
2021/09/30 13:22:36;;;;;;;7.58;5.95;;;;;;;27.48;28.75;101278.97;1730989;82;21089;-63
2021/09/30 13:25:12;;;;;;;8.33;6.00;;;;;;;27.59;28.59;101273.45;1715495;82;21058;-63
2021/09/30 13:27:40;;;;;;;11.43;6.22;;;;;;;27.68;28.38;101271.69;1728149;82;21050;-62
2021/09/30 13:30:10;;;;;;;8.75;6.15;;;;;;;27.72;28.11;101266.88;1720696;82;21041;-63
2021/09/30 13:32:39;;;;;;;9.90;6.28;;;;;;;27.70;27.98;101264.08;1719690;82;21453;-60
2021/09/30 13:35:07;;;;;;;9.90;6.97;;;;;;;27.54;27.95;101262.43;1721587;82;21715;-59
2021/09/30 13:37:33;;;;;;;8.70;6.95;;;;;;;27.29;28.01;101259.22;1726780;82;21172;-59
2021/09/30 13:40:00;;;;;;;9.20;6.72;;;;;;;26.98;28.21;101254.48;1726790;81;21061;-63
2021/09/30 13:42:29;;;;;;;5.78;5.22;;;;;;;26.61;28.75;101241.97;1723843;82;21061;-60
2021/09/30 13:45:00;;;;;;;10.20;5.83;;;;;;;26.38;30.42;101248.22;1728192;82;21125;-63
2021/09/30 13:47:27;;;;;;;7.90;6.50;;;;;;;26.14;32.05;101258.83;1728657;82;21164;-61
2021/09/30 13:49:56;;;;;;;9.15;6.87;;;;;;;25.88;32.60;101253.55;1717673;82;21027;-62
2021/09/30 13:52:23;;;;;;;10.55;6.55;;;;;;;25.62;32.67;101247.95;1727103;82;21585;-61
2021/09/30 13:54:49;;;;;;;10.32;6.22;;;;;;;25.38;32.84;101242.97;1721171;81;21510;-63
2021/09/30 13:57:16;;;;;;;10.43;6.20;;;;;;;25.16;33.23;101243.94;1725338;82;21013;-65
2021/09/30 13:59:44;;;;;;;7.58;6.12;;;;;;;24.96;33.45;101244.19;1712867;82;21117;-64
2021/09/30 14:02:10;;;;;;;8.90;6.17;;;;;;;24.78;33.79;101239.56;1728400;82;21094;-64
2021/09/30 14:04:36;;;;;;;7.78;6.25;;;;;;;24.62;34.01;101245.08;1722482;82;21133;-65
2021/09/30 14:07:05;;;;;;;10.25;8.00;;;;;;;24.46;34.07;101245.10;1710285;82;21593;-65
2021/09/30 14:09:33;;;;;;;8.38;6.90;;;;;;;24.29;34.08;101238.58;1701843;82;21843;-67
2021/09/30 14:12:02;;;;;;;9.95;6.83;;;;;;;24.12;34.30;101240.48;1708026;82;21093;-65
2021/09/30 14:14:30;;;;;;;10.95;6.80;;;;;;;23.98;34.42;101229.98;1710975;82;21523;-64
2021/09/30 14:16:58;;;;;;;8.93;7.00;;;;;;;23.82;34.45;101238.95;1723473;82;21007;-66
2021/09/30 14:19:25;;;;;;;7.83;6.30;;;;;;;23.68;34.48;101240.05;1693368;82;21122;-65
2021/09/30 14:21:53;;;;;;;9.73;7.47;;;;;;;23.54;34.58;101242.02;1728205;82;21152;-66
2021/09/30 14:24:20;;;;;;;9.63;7.05;;;;;;;23.40;34.83;101231.77;1727439;82;21023;-66